Dewey, OK (74029)

12:15 AM CST on December 29, 2014 (GMT -0600)
JW FARMS | Change Station
CLOSE
Current Station
Personal Weather Station
Location: Dewey, OK
Elevation: 705 ft
Nearby Weather Stations

Elev 705 ft 36.82 °N, 95.94 °W | Updated 8 minutes ago

Clear
Clear
19.6 °F
Feels Like 20 °F
N
0.0
Wind Variable Wind from ESE

Today
High -- | Low -- °F
--% Chance of Precip.
Yesterday
High -- | Low -- °F
Precip. -- in
7:35 AM 5:16 PM
First Quarter, 55% visible
Pressure 30.22 in
Visibility 10.0 miles
Clouds Clear
Windchill 20 °F
Dew Point 19 °F
Humidity 97%
Rainfall 0.00 in
Snow Depth Not available.
UV 0 out of 12
Pollen 5.10 out of 12
Air Quality Not available.
Flu Activity Not available.
METAR KBVO 290553Z AUTO 00000KT 10SM CLR M08/M09 A3020 RMK AO2 SLP232 I1000 I6000 T10781089 11022 21083 400561083 51010

More Conditions Fewer Conditions

Pressure 30.22 in
Visibility 10.0 miles
Clouds Clear
Windchill 20 °F
Dew Point 19 °F
Humidity 97%
Rainfall 0.00 in
Snow Depth Not available.
UV 0 out of 12
Pollen 5.10 out of 12
Air Quality Not available.
Flu Activity Not available.
METAR KBVO 290553Z AUTO 00000KT 10SM CLR M08/M09 A3020 RMK AO2 SLP232 I1000 I6000 T10781089 11022 21083 400561083 51010

More Conditions Fewer Conditions

10-Day Weather Forecast

Almanac

Astronomy

Dec. 29, 2014 Rise Set
Actual Time
Civil Twilight
Nautical Twilight
Astronomical Twilight
Moon
Length of Visible Light
Length of Day
Tomorrow will be .
, % of the Moon is Illuminated

Today's Extremes

State Highs State Lows

Community

WunderPhotos

Upload Photos

1,781,544 photos uploaded!

WunderBlogs® & News

Nearby

Air Quality

  Air Quality AQ Index Pollutant
Not available.

Snow Depth

Station Depth Elevation

Earthquake Activity

City Distance Mag. Time & Date
Minimum magnitude displayed is 2.5.

Coastal Water Temperatures

Place Temperature

Nearby Weather Stations